Yarrow Point, Washington
Current Conditions -  °F | °C
As of 5:53 PM on Saturday 25 Oct 2014 (Local Time) from KBFI Reporting Station
Light Rain Light Rain  
Wind Chill: 63°   Ceiling: 6000
Heat Index: 63°   Visibility: 10mi
Dew Point: 50°   Wind: 20mph
Humidity: 63%   Direction: 160°SSE
Pressure: 29.26"   Gusts: 28mph
Location:  47.6186°N, 122.204°W
Report Text: KBFI 260053Z 16017G24KT 10SM -RA OVC060 17/10 A2926 RMK AO2 PK WND 15029/0013 RAB35 SLP909 P0000 T01720100
Loading
Personal Weather Stations






























Interactive Weather Map
Tropical Storm Tracking
New forecast layout! Learn more

10-Day Weather Forecast

Advertisements
Track Severe Weather on mobile